Time;durP1;ratioP1;P1;durP2;ratioP2;P2;SDS_P1;SDS_P2;PMS_P1;PMS_P2;Temp;Humidity;BMP_temperature;BMP_pressure;BME280_temperature;BME280_humidity;BME280_pressure;Samples;Min_cycle;Max_cycle;Signal;HPM_P1;HPM_P2
2022/06/13 00:01:27;;;;;;;3.40;3.10;;;;;;;21.37;65.63;96823.94;5047461;28;20654;-71
2022/06/13 00:03:55;;;;;;;5.03;3.30;;;;;;;21.26;65.78;96835.44;5046914;28;20197;-71
2022/06/13 00:06:22;;;;;;;3.70;3.40;;;;;;;21.30;64.87;96821.03;5047858;28;20685;-72
2022/06/13 00:08:50;;;;;;;4.87;4.00;;;;;;;21.49;62.80;96814.88;5046381;28;20202;-72
2022/06/13 00:11:20;;;;;;;5.10;4.33;;;;;;;21.73;59.90;96794.97;5047614;28;20189;-71
2022/06/13 00:13:49;;;;;;;5.20;4.70;;;;;;;21.97;60.08;96836.66;5046458;28;20198;-71
2022/06/13 00:16:17;;;;;;;5.90;4.43;;;;;;;21.92;60.44;96825.72;5047582;28;20193;-72
2022/06/13 00:18:47;;;;;;;4.40;3.70;;;;;;;21.90;61.65;96834.75;5047306;28;20642;-72
2022/06/13 00:21:23;;;;;;;4.10;3.70;;;;;;;21.68;62.70;96831.47;5045801;28;20191;-72
2022/06/13 00:23:50;;;;;;;8.33;3.87;;;;;;;21.54;63.61;96828.44;5047449;28;20186;-72
2022/06/13 00:26:21;;;;;;;7.70;4.03;;;;;;;21.48;63.34;96818.47;5046111;28;20693;-72
2022/06/13 00:28:49;;;;;;;5.07;3.53;;;;;;;21.52;63.39;96828.59;5047827;28;20194;-71
2022/06/13 00:31:16;;;;;;;4.23;3.27;;;;;;;21.43;63.34;96823.34;5028367;28;20200;-72
2022/06/13 00:33:44;;;;;;;4.60;3.83;;;;;;;21.59;62.67;96826.22;5047014;28;20195;-71
2022/06/13 00:36:11;;;;;;;6.13;3.63;;;;;;;21.73;61.90;96817.84;5047325;28;20665;-73
2022/06/13 00:38:38;;;;;;;4.57;3.83;;;;;;;21.71;63.06;96825.06;5046352;28;20185;-72
2022/06/13 00:41:11;;;;;;;5.17;3.87;;;;;;;21.57;63.12;96823.75;5047437;28;20247;-72
2022/06/13 00:43:40;;;;;;;4.73;3.57;;;;;;;21.67;63.21;96813.16;5045939;28;20185;-72
2022/06/13 00:46:22;;;;;;;6.37;3.40;;;;;;;21.55;63.57;96816.94;5029672;28;20186;-71
2022/06/13 00:48:56;;;;;;;4.53;3.70;;;;;;;21.56;63.18;96827.34;5047143;28;20255;-71
2022/06/13 00:51:24;;;;;;;5.67;3.53;;;;;;;21.69;63.05;96824.38;5046297;28;20190;-71
2022/06/13 00:53:53;;;;;;;3.57;3.27;;;;;;;21.61;63.58;96805.81;5047490;28;20669;-71
2022/06/13 00:56:24;;;;;;;5.80;3.87;;;;;;;21.63;63.65;96809.16;5045776;28;20251;-71
2022/06/13 00:58:59;;;;;;;4.30;3.50;;;;;;;21.63;63.49;96817.06;5047248;28;20255;-72
2022/06/13 01:01:28;;;;;;;3.53;3.23;;;;;;;21.54;64.07;96807.34;5046146;28;20193;-72
2022/06/13 01:04:02;;;;;;;4.20;3.80;;;;;;;21.36;64.45;96809.06;5047023;28;20182;-73
2022/06/13 01:06:35;;;;;;;5.97;3.80;;;;;;;21.35;64.70;96799.53;5047340;28;20244;-71
2022/06/13 01:09:06;;;;;;;4.10;3.60;;;;;;;21.40;64.13;96792.00;5012117;28;20189;-72
2022/06/13 01:11:36;;;;;;;4.07;3.37;;;;;;;21.48;64.07;96807.94;5047376;28;20283;-71
2022/06/13 01:14:29;;;;;;;5.53;3.70;;;;;;;21.48;63.13;96798.22;5045713;28;20331;-72
2022/06/13 01:17:34;;;;;;;5.53;3.87;;;;;;;21.70;62.60;96794.44;5046662;28;20746;-71
2022/06/13 01:20:21;;;;;;;3.83;3.53;;;;;;;21.68;62.80;96797.19;5047136;28;20189;-71
2022/06/13 01:23:13;;;;;;;4.90;3.83;;;;;;;21.68;63.15;96788.44;5045757;28;20218;-71
2022/06/13 01:25:49;;;;;;;5.60;3.57;;;;;;;21.64;63.14;96771.25;5046173;28;20731;-72
2022/06/13 01:28:41;;;;;;;4.10;3.70;;;;;;;21.56;63.63;96773.78;5046930;28;20186;-71
2022/06/13 01:31:22;;;;;;;4.33;3.47;;;;;;;21.59;63.61;96784.91;5045521;28;20200;-71
2022/06/13 01:34:04;;;;;;;5.63;4.27;;;;;;;21.66;62.30;96772.78;5050628;28;20189;-72
2022/06/13 01:36:49;;;;;;;4.63;4.10;;;;;;;21.79;61.93;96783.00;5050650;28;20204;-72
2022/06/13 01:39:40;;;;;;;5.83;4.07;;;;;;;21.84;62.66;96762.34;5049324;28;20190;-71
2022/06/13 01:42:29;;;;;;;4.53;4.07;;;;;;;21.73;63.15;96778.31;5050725;28;20190;-72
2022/06/13 01:45:19;;;;;;;4.50;4.00;;;;;;;21.55;63.68;96761.59;5050164;28;20764;-72
2022/06/13 01:47:52;;;;;;;7.73;4.07;;;;;;;21.66;63.55;96774.56;5031251;28;20278;-71
2022/06/13 01:50:32;;;;;;;4.47;4.00;;;;;;;21.54;64.32;96768.66;5050563;28;20212;-71
2022/06/13 01:53:20;;;;;;;5.27;4.60;;;;;;;21.61;63.40;96776.84;5031084;28;20743;-72
2022/06/13 01:56:00;;;;;;;5.73;4.03;;;;;;;21.60;63.68;96775.16;5049892;28;20194;-71
2022/06/13 01:58:48;;;;;;;5.33;4.20;;;;;;;21.62;63.57;96783.75;5050473;28;20193;-73
2022/06/13 02:01:29;;;;;;;5.57;4.23;;;;;;;21.75;63.02;96779.00;5048869;28;20186;-72
2022/06/13 02:04:07;;;;;;;4.87;3.97;;;;;;;21.65;63.43;96779.03;5050133;28;20190;-70
2022/06/13 02:06:41;;;;;;;4.53;3.70;;;;;;;21.70;63.58;96781.25;5049789;28;20193;-70
2022/06/13 02:09:21;;;;;;;4.60;3.70;;;;;;;21.58;64.17;96783.22;5049070;28;20189;-70
2022/06/13 02:11:54;;;;;;;7.23;4.67;;;;;;;21.64;63.96;96781.81;5050084;28;20249;-70
2022/06/13 02:14:27;;;;;;;5.50;3.87;;;;;;;21.57;63.81;96791.28;5048415;28;20702;-73
2022/06/13 02:16:53;;;;;;;5.90;4.07;;;;;;;21.63;63.62;96791.53;5050055;28;20201;-72
2022/06/13 02:19:31;;;;;;;5.47;4.30;;;;;;;21.61;63.50;96785.59;5049444;28;20193;-71
2022/06/13 02:22:04;;;;;;;4.23;3.83;;;;;;;21.54;63.57;96792.38;5049456;28;20189;-71
2022/06/13 02:24:36;;;;;;;4.77;4.10;;;;;;;21.57;63.61;96797.38;5056111;28;20246;-71
2022/06/13 02:27:06;;;;;;;4.77;3.93;;;;;;;21.58;63.42;96799.03;5053258;28;20669;-73
2022/06/13 02:29:47;;;;;;;5.77;4.07;;;;;;;21.61;63.36;96809.31;5050496;28;20192;-71
2022/06/13 02:32:26;;;;;;;7.47;3.70;;;;;;;21.64;63.38;96803.72;5049965;28;20226;-71
2022/06/13 02:35:02;;;;;;;5.30;4.20;;;;;;;21.65;63.29;96802.78;5048947;28;20595;-71
2022/06/13 02:37:38;;;;;;;5.20;3.83;;;;;;;21.67;63.28;96798.19;5050294;28;20194;-71
2022/06/13 02:40:21;;;;;;;4.77;3.90;;;;;;;21.58;63.61;96793.75;5048577;28;20684;-71
2022/06/13 02:42:56;;;;;;;6.17;4.33;;;;;;;21.58;62.83;96793.75;5049747;28;20190;-71
2022/06/13 02:45:32;;;;;;;4.00;3.60;;;;;;;21.65;63.08;96794.84;5048617;28;20235;-71
2022/06/13 02:47:59;;;;;;;4.93;3.90;;;;;;;21.63;63.20;96795.97;5048152;28;20896;-71
2022/06/13 02:50:52;;;;;;;4.03;3.60;;;;;;;21.55;63.43;96806.41;5049343;28;20678;-72
2022/06/13 02:53:33;;;;;;;4.57;3.47;;;;;;;21.63;63.52;96796.81;5048039;28;20219;-72
2022/06/13 02:56:21;;;;;;;4.13;3.73;;;;;;;21.64;63.34;96803.72;5031287;28;20194;-72
2022/06/13 02:59:06;;;;;;;4.63;4.23;;;;;;;21.66;63.15;96804.41;5049349;28;20193;-71
2022/06/13 03:01:39;;;;;;;5.10;3.93;;;;;;;21.70;62.24;96803.16;5047687;28;20276;-71
2022/06/13 03:04:42;;;;;;;3.97;3.57;;;;;;;21.88;62.17;96800.63;5049361;28;20187;-71
2022/06/13 03:07:40;;;;;;;7.07;3.80;;;;;;;21.87;62.34;96804.22;5006946;28;20210;-71
2022/06/13 03:10:12;;;;;;;6.20;4.40;;;;;;;21.91;62.09;96795.06;5029549;28;20190;-71
2022/06/13 03:12:52;;;;;;;4.10;3.50;;;;;;;21.97;61.99;96812.94;5048791;28;20271;-71
2022/06/13 03:15:27;;;;;;;5.43;4.63;;;;;;;21.96;62.37;96803.38;5048031;28;20192;-72
2022/06/13 03:18:06;;;;;;;4.87;4.20;;;;;;;21.97;62.19;96798.94;5029834;28;20225;-72
2022/06/13 03:20:55;;;;;;;7.30;4.43;;;;;;;21.94;61.89;96794.78;5057986;28;20193;-72
2022/06/13 03:23:43;;;;;;;5.13;4.03;;;;;;;22.00;61.50;96803.91;5067330;28;20194;-71
2022/06/13 03:26:16;;;;;;;7.03;4.40;;;;;;;22.08;61.28;96782.91;5068190;28;20222;-72
2022/06/13 03:29:17;;;;;;;7.97;5.07;;;;;;;21.94;60.73;96800.03;5068339;28;20196;-72
2022/06/13 03:31:51;;;;;;;4.60;4.20;;;;;;;22.14;60.61;96790.22;5048625;28;20224;-72
2022/06/13 03:34:24;;;;;;;5.27;4.63;;;;;;;22.12;60.88;96803.56;5068328;28;20260;-73
2022/06/13 03:36:57;;;;;;;6.17;4.47;;;;;;;22.10;60.75;96799.41;5067539;28;20198;-73
2022/06/13 03:39:30;;;;;;;4.60;4.03;;;;;;;22.11;61.41;96809.00;5067639;28;20214;-73
2022/06/13 03:42:04;;;;;;;6.03;4.50;;;;;;;22.18;61.14;96807.41;5051002;28;20198;-72
2022/06/13 03:44:37;;;;;;;4.33;3.93;;;;;;;22.01;61.40;96809.03;5066790;28;20648;-73
2022/06/13 03:47:26;;;;;;;5.50;5.00;;;;;;;22.07;62.04;96805.78;5068183;28;20188;-73
2022/06/13 03:50:36;;;;;;;6.10;4.00;;;;;;;21.90;61.86;96796.03;5067505;28;20605;-71
2022/06/13 03:53:11;;;;;;;5.17;3.70;;;;;;;21.85;62.87;96799.09;4984818;28;20251;-71
2022/06/13 03:55:43;;;;;;;5.60;4.40;;;;;;;21.98;62.23;96811.97;4963765;28;20207;-71
2022/06/13 03:58:27;;;;;;;5.33;4.00;;;;;;;21.98;62.87;96814.59;5023959;28;20698;-71
2022/06/13 04:01:04;;;;;;;6.27;3.70;;;;;;;21.96;62.59;96810.44;5055562;28;20199;-71
2022/06/13 04:03:31;;;;;;;3.60;3.20;;;;;;;22.32;61.78;96812.19;5067879;28;20677;-71
2022/06/13 04:06:05;;;;;;;4.30;3.57;;;;;;;22.64;61.05;96800.22;5066382;28;20198;-72
2022/06/13 04:08:37;;;;;;;6.03;3.30;;;;;;;22.75;60.16;96801.78;5067815;28;20578;-71
2022/06/13 04:11:45;;;;;;;4.70;3.90;;;;;;;22.86;59.46;96819.22;5066296;28;20278;-71
2022/06/13 04:14:30;;;;;;;5.87;3.97;;;;;;;22.84;59.75;96795.63;5047839;28;20226;-72
2022/06/13 04:17:15;;;;;;;4.60;3.53;;;;;;;22.62;60.50;96811.91;5067829;28;20186;-73
2022/06/13 04:20:01;;;;;;;5.67;3.40;;;;;;;22.56;61.02;96817.75;5066262;28;20228;-72
2022/06/13 04:22:48;;;;;;;7.63;4.57;;;;;;;22.98;59.34;96794.25;5066667;28;20194;-72
2022/06/13 04:25:57;;;;;;;7.83;5.47;;;;;;;23.42;57.34;96822.38;5066801;28;20226;-72
2022/06/13 04:28:53;;;;;;;6.20;3.80;;;;;;;23.96;55.63;96818.56;4965112;28;20196;-73
2022/06/13 04:32:00;;;;;;;8.77;4.27;;;;;;;24.44;54.11;96802.09;5057787;28;20202;-72
2022/06/13 04:35:20;;;;;;;5.50;4.03;;;;;;;24.49;53.61;96819.16;5066463;28;20282;-72
2022/06/13 04:38:44;;;;;;;3.40;3.10;;;;;;;23.78;55.71;96823.91;5066448;28;20246;-71
2022/06/13 04:42:04;;;;;;;4.57;3.50;;;;;;;24.31;54.93;96804.34;5046997;28;20192;-73
2022/06/13 04:45:25;;;;;;;4.57;3.83;;;;;;;24.30;54.35;96784.19;5064792;28;20204;-73
2022/06/13 04:48:46;;;;;;;9.10;4.57;;;;;;;24.59;52.54;96819.00;5066075;28;20196;-72
2022/06/13 04:52:06;;;;;;;6.07;4.30;;;;;;;24.23;53.45;96829.81;5066773;28;20912;-73
2022/06/13 04:55:27;;;;;;;12.30;5.20;;;;;;;24.38;53.80;96837.97;5066122;28;20702;-72
2022/06/13 04:58:52;;;;;;;7.27;5.17;;;;;;;24.41;53.62;96815.63;5065113;28;20208;-74
2022/06/13 05:02:13;;;;;;;5.37;4.27;;;;;;;24.13;54.78;96823.00;5065152;28;20197;-74
2022/06/13 05:05:25;;;;;;;5.10;3.90;;;;;;;24.15;55.17;96836.91;5066241;28;20235;-72
2022/06/13 05:08:49;;;;;;;7.93;4.17;;;;;;;23.95;56.44;96825.69;5051081;28;20185;-72
2022/06/13 05:12:04;;;;;;;5.43;4.07;;;;;;;23.63;56.29;96830.78;5068971;28;20555;-73
2022/06/13 05:15:03;;;;;;;10.10;5.00;;;;;;;23.54;57.16;96813.19;5068649;28;20200;-72
2022/06/13 05:17:56;;;;;;;5.17;3.87;;;;;;;23.65;56.88;96834.09;5070048;28;20751;-73
2022/06/13 05:21:31;;;;;;;7.37;4.40;;;;;;;23.61;57.03;96819.53;5069589;28;20276;-73
2022/06/13 05:24:30;;;;;;;5.50;4.37;;;;;;;23.79;55.32;96827.41;5068312;28;20239;-73
2022/06/13 05:27:53;;;;;;;7.90;3.87;;;;;;;23.72;56.01;96824.53;5069252;28;20383;-72
2022/06/13 05:31:16;;;;;;;7.00;4.80;;;;;;;23.86;56.43;96836.38;5054462;28;20213;-72
2022/06/13 05:34:36;;;;;;;5.17;4.00;;;;;;;24.18;55.78;96855.09;5069860;28;20263;-73
2022/06/13 05:37:57;;;;;;;9.47;4.93;;;;;;;24.13;53.79;96852.13;5068235;28;20200;-74
2022/06/13 05:41:18;;;;;;;6.73;4.30;;;;;;;24.22;54.36;96846.69;5068103;28;20624;-74
2022/06/13 05:44:38;;;;;;;4.30;3.90;;;;;;;24.21;55.24;96849.50;5051587;28;20201;-73
2022/06/13 05:47:59;;;;;;;5.23;3.10;;;;;;;24.20;56.02;96851.31;5069381;28;20683;-73
2022/06/13 05:51:20;;;;;;;4.27;3.23;;;;;;;23.85;57.12;96851.41;5068502;28;20653;-73
2022/06/13 05:54:40;;;;;;;3.93;3.47;;;;;;;24.04;55.01;96853.88;5067608;28;20709;-74
2022/06/13 05:58:01;;;;;;;6.53;3.63;;;;;;;24.42;55.43;96854.38;5053090;28;20600;-73
2022/06/13 06:01:22;;;;;;;4.53;3.90;;;;;;;24.92;53.67;96840.13;5069579;28;20194;-74
2022/06/13 06:04:42;;;;;;;5.43;4.23;;;;;;;25.08;52.08;96863.16;5069183;28;20686;-74
2022/06/13 06:08:03;;;;;;;5.23;3.67;;;;;;;25.27;52.99;96854.91;5067406;28;20198;-73
2022/06/13 06:11:24;;;;;;;7.50;3.97;;;;;;;25.63;53.37;96858.94;5067697;28;20205;-73
2022/06/13 06:14:44;;;;;;;7.37;4.67;;;;;;;26.00;51.51;96873.44;5069020;28;20223;-73
2022/06/13 06:18:05;;;;;;;6.57;4.10;;;;;;;25.91;51.54;96885.06;5051744;28;20289;-74
2022/06/13 06:21:26;;;;;;;8.37;6.90;;;;;;;25.60;48.52;96872.50;5068327;28;20227;-74
2022/06/13 06:24:46;;;;;;;6.40;5.73;;;;;;;25.60;49.73;96880.47;5067272;28;20192;-74
2022/06/13 06:28:08;;;;;;;7.27;6.57;;;;;;;25.42;49.13;96885.13;5050602;28;20194;-73
2022/06/13 06:31:29;;;;;;;6.37;5.70;;;;;;;25.11;50.10;96862.84;5068541;28;20195;-71
2022/06/13 06:34:50;;;;;;;6.13;4.43;;;;;;;24.79;52.53;96868.91;5050419;28;20223;-73
2022/06/13 06:38:10;;;;;;;5.17;4.67;;;;;;;24.55;53.01;96876.75;5049239;28;20819;-73
2022/06/13 06:41:31;;;;;;;8.50;4.80;;;;;;;24.50;52.27;96889.66;5067118;28;20194;-73
2022/06/13 06:44:51;;;;;;;5.27;4.30;;;;;;;24.33;53.11;96903.81;5068565;28;20187;-73
2022/06/13 06:48:12;;;;;;;4.43;4.03;;;;;;;24.53;54.32;96893.78;5050708;28;20580;-74
2022/06/13 06:51:33;;;;;;;4.23;3.70;;;;;;;24.84;54.42;96897.56;5067388;28;20282;-75
2022/06/13 07:02:12;;;;;;;4.77;4.37;;;;;;;25.17;51.87;96878.09;5067778;28;20213;-73
2022/06/13 07:05:32;;;;;;;5.57;4.80;;;;;;;25.33;49.57;96875.44;5067812;28;20787;-73
2022/06/13 07:08:53;;;;;;;6.70;6.00;;;;;;;25.24;49.53;96863.22;5067081;28;20187;-73
2022/06/13 07:12:14;;;;;;;6.03;5.20;;;;;;;25.09;49.93;96909.06;5065828;28;20392;-73
2022/06/13 07:15:34;;;;;;;5.37;4.83;;;;;;;25.70;48.89;96886.41;5067038;28;20670;-74
2022/06/13 07:18:55;;;;;;;6.53;5.87;;;;;;;25.63;46.45;96904.03;5049703;28;20263;-73
2022/06/13 07:22:17;;;;;;;9.63;6.30;;;;;;;25.86;47.14;96884.75;5051676;28;20659;-74
2022/06/13 07:25:37;;;;;;;7.17;6.47;;;;;;;26.13;46.45;96887.88;5066579;28;20596;-74
2022/06/13 07:28:58;;;;;;;5.73;4.00;;;;;;;25.33;50.55;96895.84;5066492;28;20192;-72
2022/06/13 07:32:05;;;;;;;4.67;4.03;;;;;;;24.74;53.50;96903.03;5049486;28;20190;-73
2022/06/13 07:35:26;;;;;;;12.20;8.33;;;;;;;25.07;53.27;96909.22;5067279;28;20192;-74
2022/06/13 07:39:02;;;;;;;9.97;5.53;;;;;;;25.64;52.64;96908.31;5066459;28;20796;-74
2022/06/13 07:42:23;;;;;;;6.23;5.30;;;;;;;25.80;52.01;96910.16;5065897;28;20211;-74
2022/06/13 07:45:44;;;;;;;15.23;7.63;;;;;;;25.75;52.50;96926.56;5048887;28;20189;-72
2022/06/13 07:49:05;;;;;;;5.70;4.80;;;;;;;25.41;53.65;96933.81;5067511;28;20565;-74
2022/06/13 07:52:25;;;;;;;7.40;4.90;;;;;;;25.59;52.82;96918.63;5066787;28;20191;-73
2022/06/13 07:55:46;;;;;;;7.57;5.23;;;;;;;25.39;53.94;96927.81;5047340;28;20199;-74
2022/06/13 07:59:08;;;;;;;4.53;3.97;;;;;;;25.36;54.01;96930.81;5065666;28;20597;-73
2022/06/13 08:02:28;;;;;;;10.10;5.77;;;;;;;25.55;54.08;96922.59;5049078;28;20189;-73
2022/06/13 08:05:49;;;;;;;8.07;4.90;;;;;;;25.65;53.68;96931.22;5066560;28;20207;-73
2022/06/13 08:09:10;;;;;;;8.50;5.20;;;;;;;25.64;54.08;96924.22;5047933;28;20265;-73
2022/06/13 08:12:30;;;;;;;8.63;7.00;;;;;;;25.68;52.95;96922.06;5047232;28;20291;-73
2022/06/13 08:15:52;;;;;;;5.37;4.87;;;;;;;25.58;52.97;96927.53;5048408;28;20194;-75
2022/06/13 08:19:12;;;;;;;6.70;4.80;;;;;;;25.28;54.12;96928.16;5051184;28;20189;-72
2022/06/13 08:22:33;;;;;;;6.27;4.47;;;;;;;24.98;54.95;96939.34;5066222;28;20204;-72
2022/06/13 08:25:54;;;;;;;6.73;4.87;;;;;;;25.14;55.49;96950.00;5046779;28;20805;-74
2022/06/13 08:29:14;;;;;;;5.63;4.67;;;;;;;25.20;55.47;96944.06;5065353;28;20234;-74
2022/06/13 08:32:35;;;;;;;7.57;5.23;;;;;;;25.24;56.13;96942.75;5066495;28;20202;-72
2022/06/13 08:35:56;;;;;;;6.83;5.27;;;;;;;25.53;55.67;96943.13;5048093;28;20203;-73
2022/06/13 08:39:17;;;;;;;6.97;5.07;;;;;;;25.33;53.96;96936.44;5065067;28;20633;-72
2022/06/13 08:42:48;;;;;;;8.30;5.63;;;;;;;25.57;53.78;96946.28;5064327;28;20623;-73
2022/06/13 08:46:11;;;;;;;7.47;6.00;;;;;;;25.64;53.47;96940.16;5065633;28;20278;-72
2022/06/13 08:49:30;;;;;;;7.17;5.70;;;;;;;26.06;51.98;96931.16;5066106;28;20683;-74
2022/06/13 08:53:09;;;;;;;6.77;5.90;;;;;;;25.82;52.51;96916.91;5065827;28;20204;-73
2022/06/13 08:56:29;;;;;;;6.97;5.87;;;;;;;25.66;51.87;96948.78;5064744;28;20207;-73
2022/06/13 08:59:50;;;;;;;7.23;5.47;;;;;;;25.46;54.10;96959.88;5046543;28;20282;-73
2022/06/13 09:02:57;;;;;;;6.53;5.47;;;;;;;25.30;55.02;96952.69;5065809;28;20192;-73
2022/06/13 09:06:26;;;;;;;8.27;5.33;;;;;;;25.52;54.81;96937.97;5050401;28;20240;-73
2022/06/13 09:09:36;;;;;;;7.60;5.40;;;;;;;25.36;54.89;96946.72;5065006;28;20202;-74
2022/06/13 09:12:23;;;;;;;6.57;4.70;;;;;;;25.43;54.69;96934.50;5064351;28;20281;-74
2022/06/13 09:15:47;;;;;;;5.13;4.63;;;;;;;25.60;54.98;96938.81;5065844;28;20584;-74
2022/06/13 09:19:06;;;;;;;8.13;5.33;;;;;;;25.76;54.47;96936.16;5050305;28;20203;-74
2022/06/13 09:22:13;;;;;;;7.37;6.10;;;;;;;25.63;50.71;96938.50;5046665;28;20473;-74
2022/06/13 09:25:19;;;;;;;6.87;6.17;;;;;;;25.60;52.79;96944.13;5064724;28;20235;-74
2022/06/13 09:28:45;;;;;;;7.63;6.00;;;;;;;25.76;53.45;96936.16;5050076;28;20191;-74
2022/06/13 09:32:12;;;;;;;7.07;6.07;;;;;;;25.53;53.00;96932.50;5065542;28;20206;-74
2022/06/13 09:35:35;;;;;;;6.60;5.13;;;;;;;25.65;54.14;96933.88;5046602;28;20192;-74
2022/06/13 09:38:56;;;;;;;5.47;4.97;;;;;;;25.53;54.15;96935.16;5064440;28;20685;-74
2022/06/13 09:41:52;;;;;;;7.53;5.90;;;;;;;25.38;54.74;96931.50;5065172;28;20778;-74
2022/06/13 09:44:44;;;;;;;7.03;6.27;;;;;;;25.30;55.04;96935.94;5066424;28;20202;-73
2022/06/13 09:47:37;;;;;;;7.60;5.37;;;;;;;25.35;55.57;96945.06;5063966;28;20602;-72
2022/06/13 09:51:02;;;;;;;8.17;5.70;;;;;;;25.10;55.45;96938.03;5065025;28;20252;-73
2022/06/13 09:54:24;;;;;;;6.90;5.93;;;;;;;24.97;55.90;96924.44;5067260;28;20231;-73
2022/06/13 09:57:36;;;;;;;6.73;5.57;;;;;;;24.78;55.26;96935.31;5068963;28;20200;-73
2022/06/13 10:00:42;;;;;;;6.57;5.50;;;;;;;24.74;55.74;96928.69;5039900;28;20202;-73
2022/06/13 10:03:30;;;;;;;6.30;5.70;;;;;;;24.71;57.14;96918.38;5067924;28;20221;-73
2022/06/13 10:06:17;;;;;;;6.77;6.07;;;;;;;24.86;55.84;96930.88;5069104;28;20196;-73
2022/06/13 10:09:01;;;;;;;7.07;6.20;;;;;;;25.00;55.89;96924.09;5067412;28;20221;-73
2022/06/13 10:12:19;;;;;;;7.60;6.00;;;;;;;25.01;55.10;96921.31;5051042;28;20309;-73
2022/06/13 10:15:00;;;;;;;6.77;6.07;;;;;;;24.96;54.82;96918.31;5067974;28;20220;-73
2022/06/13 10:18:16;;;;;;;8.80;6.17;;;;;;;25.18;54.50;96919.53;5067628;28;20210;-73
2022/06/13 10:21:17;;;;;;;7.13;6.10;;;;;;;25.19;55.19;96923.00;5068027;28;20277;-73
2022/06/13 10:24:35;;;;;;;7.20;6.50;;;;;;;25.04;55.36;96914.84;5050606;28;20659;-73
2022/06/13 10:27:31;;;;;;;7.37;6.40;;;;;;;25.29;54.85;96923.66;5051816;28;20199;-74
2022/06/13 10:31:04;;;;;;;6.80;5.80;;;;;;;25.15;55.78;96921.66;5067441;28;20186;-74
2022/06/13 10:34:20;;;;;;;8.90;5.83;;;;;;;25.19;54.96;96904.44;5027920;28;20306;-73
2022/06/13 10:37:21;;;;;;;6.90;6.20;;;;;;;25.47;52.39;96909.31;5069470;28;20201;-73
2022/06/13 10:40:41;;;;;;;9.90;6.57;;;;;;;25.77;52.98;96906.00;5069457;28;20685;-74
2022/06/13 10:44:02;;;;;;;7.10;6.40;;;;;;;25.96;52.16;96903.97;5067170;28;20219;-73
2022/06/13 10:47:29;;;;;;;7.77;6.33;;;;;;;25.93;50.77;96901.66;5018904;28;20662;-73
2022/06/13 10:50:35;;;;;;;8.47;6.17;;;;;;;26.01;50.03;96899.00;5068676;28;20239;-73
2022/06/13 10:53:48;;;;;;;7.30;6.60;;;;;;;26.01;51.25;96899.00;5053770;28;20261;-73
2022/06/13 10:57:15;;;;;;;8.67;7.10;;;;;;;25.99;50.78;96891.19;5069494;28;20280;-74
2022/06/13 11:00:51;;;;;;;6.40;5.80;;;;;;;25.75;51.00;96904.50;5069903;28;20222;-73
2022/06/13 11:04:24;;;;;;;8.10;6.07;;;;;;;25.88;51.09;96893.38;5072050;28;20256;-74
2022/06/13 11:07:51;;;;;;;7.57;6.53;;;;;;;26.01;50.14;96891.03;5067861;28;20229;-73
2022/06/13 11:11:23;;;;;;;7.03;6.33;;;;;;;26.46;48.89;96878.78;5063347;28;20659;-74
2022/06/13 11:22:43;;;;;;;7.43;5.90;;;;;;;26.38;48.79;96870.03;5066627;28;20181;-74
2022/06/13 11:27:39;;;;;;;7.07;6.03;;;;;;;26.58;48.37;96869.44;5066759;28;20722;-73
2022/06/13 11:29:47;;;;;;;8.13;6.00;;;;;;;26.88;48.86;96873.16;5033156;28;20279;-73
2022/06/13 11:33:00;;;;;;;8.67;6.53;;;;;;;27.13;48.44;96857.88;5067531;28;20189;-74
2022/06/13 11:36:04;;;;;;;7.53;6.27;;;;;;;27.45;48.07;96867.47;5066030;28;20266;-72
2022/06/13 11:39:24;;;;;;;7.67;6.30;;;;;;;27.64;47.59;96861.63;5048589;28;20687;-74
2022/06/13 11:42:54;;;;;;;7.83;5.97;;;;;;;27.72;47.26;96857.06;5049900;28;20305;-72
2022/06/13 11:46:15;;;;;;;7.30;6.57;;;;;;;27.92;47.07;96868.88;5067291;28;20632;-74
2022/06/13 11:49:15;;;;;;;7.27;6.33;;;;;;;27.81;45.30;96852.50;5067065;28;20352;-73
2022/06/13 11:53:35;;;;;;;7.33;6.33;;;;;;;27.84;45.77;96852.97;5047481;28;20730;-73
2022/06/13 11:56:11;;;;;;;13.37;8.83;;;;;;;28.24;45.76;96851.75;5066656;28;20282;-73
2022/06/13 11:59:32;;;;;;;7.03;5.70;;;;;;;27.73;44.96;96849.94;5067232;28;20613;-73
2022/06/13 12:02:41;;;;;;;6.50;5.60;;;;;;;27.36;47.10;96851.59;5066760;28;20189;-74
2022/06/13 12:05:49;;;;;;;12.20;8.90;;;;;;;27.31;44.82;96848.59;5065303;28;20208;-74
2022/06/13 12:09:09;;;;;;;10.70;7.27;;;;;;;27.40;47.31;96852.06;5065477;28;20265;-72
2022/06/13 12:12:30;;;;;;;9.30;7.00;;;;;;;27.45;48.06;96843.53;5048276;28;20192;-74
2022/06/13 12:15:50;;;;;;;12.20;7.37;;;;;;;27.44;48.09;96829.41;5066521;28;20185;-73
2022/06/13 12:18:44;;;;;;;8.40;6.67;;;;;;;27.52;47.55;96826.66;5065253;28;20200;-73
2022/06/13 12:21:54;;;;;;;8.90;6.97;;;;;;;27.61;47.81;96822.09;5066432;28;20203;-73
2022/06/13 12:25:17;;;;;;;9.70;7.10;;;;;;;27.59;46.85;96826.78;5067229;28;20241;-74
2022/06/13 12:28:24;;;;;;;17.03;7.67;;;;;;;27.86;46.80;96820.84;5048711;28;20683;-73
2022/06/13 12:31:45;;;;;;;9.60;8.03;;;;;;;28.11;44.62;96817.75;5065609;28;20207;-73
2022/06/13 12:34:49;;;;;;;14.10;8.83;;;;;;;28.49;44.68;96821.13;5065746;28;20700;-73
2022/06/13 12:38:07;;;;;;;11.00;7.57;;;;;;;28.79;43.30;96822.72;5066843;28;20189;-73
2022/06/13 12:41:36;;;;;;;6.60;5.93;;;;;;;28.80;42.30;96826.22;5066126;28;20181;-73
2022/06/13 12:44:43;;;;;;;6.47;5.43;;;;;;;28.19;41.23;96827.50;5065225;28;20660;-73
2022/06/13 12:47:33;;;;;;;7.57;5.77;;;;;;;28.31;42.32;96823.38;5065330;28;20628;-73
2022/06/13 12:51:08;;;;;;;7.37;5.50;;;;;;;27.93;41.47;96816.44;5065975;28;20189;-72
2022/06/13 12:54:01;;;;;;;6.30;5.30;;;;;;;28.25;39.08;96808.13;5066137;28;20221;-73
2022/06/13 12:57:00;;;;;;;6.23;5.63;;;;;;;28.08;41.28;96812.81;5065015;28;20234;-72
2022/06/13 12:59:56;;;;;;;6.93;5.93;;;;;;;27.91;42.10;96815.78;5048250;28;20694;-73
2022/06/13 13:02:57;;;;;;;6.47;5.23;;;;;;;26.94;43.84;96702.31;5066077;28;20185;-72
2022/06/13 13:06:23;;;;;;;7.17;5.87;;;;;;;27.70;44.35;96797.06;5064915;28;20633;-74
2022/06/13 13:09:22;;;;;;;6.97;5.73;;;;;;;27.74;42.60;96809.00;5064771;28;20193;-74
2022/06/13 13:12:29;;;;;;;7.17;6.10;;;;;;;27.62;43.41;96811.25;5066184;28;20189;-73
2022/06/13 13:15:19;;;;;;;6.17;5.50;;;;;;;27.68;42.56;96809.72;5065300;28;20195;-74
2022/06/13 13:18:09;;;;;;;6.23;5.63;;;;;;;27.85;41.18;96804.06;5046874;28;20238;-74
2022/06/13 13:21:12;;;;;;;6.57;5.97;;;;;;;27.85;41.34;96788.06;5066352;28;20189;-73
2022/06/13 13:24:22;;;;;;;7.00;6.40;;;;;;;28.12;38.85;96786.63;5065414;28;20193;-75
2022/06/13 13:27:43;;;;;;;6.63;5.13;;;;;;;28.20;40.82;96786.53;5036481;28;20212;-73
2022/06/13 13:31:03;;;;;;;7.73;5.07;;;;;;;28.40;40.61;96782.25;5019750;28;20189;-72
2022/06/13 13:34:35;;;;;;;6.23;5.63;;;;;;;28.51;41.01;96772.97;5054611;28;20932;-73
2022/06/13 13:37:51;;;;;;;6.03;5.53;;;;;;;28.24;41.10;96773.66;5069789;28;20280;-73
2022/06/13 13:41:24;;;;;;;12.30;5.73;;;;;;;28.05;42.19;96778.56;5068626;28;20216;-72
2022/06/13 13:44:47;;;;;;;6.70;5.93;;;;;;;27.73;41.14;96784.22;5050029;28;20220;-72
2022/06/13 13:48:09;;;;;;;6.50;5.90;;;;;;;27.91;41.63;96775.84;5069304;28;20196;-72
2022/06/13 13:51:31;;;;;;;9.17;6.20;;;;;;;28.00;42.23;96767.66;5036573;28;20785;-73
2022/06/13 13:54:56;;;;;;;8.43;6.43;;;;;;;28.14;42.18;96765.97;5051352;28;20710;-73
2022/06/13 13:58:20;;;;;;;7.90;5.93;;;;;;;28.15;41.87;96760.44;5049890;28;20189;-72
2022/06/13 14:01:20;;;;;;;7.93;6.17;;;;;;;28.14;41.83;96750.81;5058288;28;20267;-73
2022/06/13 14:04:19;;;;;;;6.37;5.70;;;;;;;27.84;42.85;96751.00;5048750;28;20213;-72
2022/06/13 14:07:41;;;;;;;10.20;6.10;;;;;;;28.24;41.88;96758.50;5055398;28;20596;-73
2022/06/13 14:11:02;;;;;;;6.70;5.90;;;;;;;28.10;42.52;96749.53;5047347;28;20527;-75
2022/06/13 14:13:45;;;;;;;8.43;5.87;;;;;;;28.15;41.70;96762.31;5029700;28;20239;-74
2022/06/13 14:16:14;;;;;;;8.17;6.07;;;;;;;27.99;41.52;96760.66;5031493;28;20233;-74
2022/06/13 14:18:57;;;;;;;8.20;5.67;;;;;;;27.84;41.53;96753.66;5030151;28;20201;-72
2022/06/13 14:21:32;;;;;;;8.20;6.17;;;;;;;27.95;42.82;96755.84;5049426;28;20194;-71
2022/06/13 14:24:07;;;;;;;8.20;5.97;;;;;;;27.97;43.32;96752.03;5048795;28;20272;-72
2022/06/13 14:26:39;;;;;;;7.70;6.27;;;;;;;28.29;42.63;96747.31;5048348;28;20197;-73
2022/06/13 14:29:11;;;;;;;5.83;5.33;;;;;;;28.19;43.10;96747.59;5049345;28;20182;-73
2022/06/13 14:31:53;;;;;;;7.27;6.43;;;;;;;28.33;42.82;96740.59;5047568;28;20273;-72